CDT,Max TemperatureF,Mean TemperatureF,Min TemperatureF,Max Dew PointF,MeanDew PointF,Min DewpointF,Max Humidity, Mean Humidity, Min Humidity, Max Sea Level PressureIn, Mean Sea Level PressureIn, Min Sea Level PressureIn, Max VisibilityMiles, Mean VisibilityMiles, Min VisibilityMiles, Max Wind SpeedMPH, Mean Wind SpeedMPH, Max Gust SpeedMPH,PrecipitationIn, CloudCover, Events, WindDirDegrees
2013-6-1,89,78,73,70,70,69,87,79,63,29.99,29.95,29.93,10,9,6,13,7,,0.00,2,Rain,150
2013-6-2,91,80,69,72,69,66,94,79,50,30.00,29.93,29.83,10,6,0,15,3,23,0.02,4,Fog-Rain-Thunderstorm,149
2013-6-3,87,78,71,73,70,67,89,78,61,29.94,29.88,29.81,10,9,0,13,3,,0.78,6,Rain-Thunderstorm,265
2013-6-4,91,80,69,74,71,66,100,84,55,29.97,29.91,29.87,10,5,0,12,1,,0.00,3,Fog-Rain,169
2013-6-5,90,80,70,73,70,64,91,77,52,29.96,29.91,29.83,10,9,3,16,6,31,0.00,5,Rain,115
2013-6-6,87,76,66,69,67,63,90,75,55,29.83,29.75,29.68,10,9,1,14,7,18,0.00,6,Rain,357
2013-6-7,84,76,69,71,66,64,88,75,53,29.87,29.79,29.72,10,9,4,14,4,29,0.11,4,Rain,282
2013-6-8,89,78,66,72,68,63,90,72,53,30.05,29.94,29.86,10,10,6,20,6,26,0.03,2,Rain-Thunderstorm,165
2013-6-9,73,71,69,72,69,66,100,91,83,30.09,30.02,29.92,10,6,1,17,9,,2.66,7,Rain-Thunderstorm,150
2013-6-10,82,76,71,74,70,68,94,87,69,30.09,30.03,29.98,10,6,0,21,9,51,1.05,7,Rain-Thunderstorm,220
2013-6-11,93,82,71,75,71,66,94,81,41,30.11,30.04,29.96,10,5,0,14,2,,0.00,5,Fog-Rain,257
2013-6-12,95,83,71,75,71,66,94,72,38,30.07,30.01,29.95,10,8,1,9,3,,0.00,2,Rain,269
2013-6-13,95,85,75,73,71,68,87,65,43,29.99,29.91,29.83,10,10,8,13,6,,0.00,1,,275
2013-6-14,93,84,75,73,69,64,82,64,44,29.91,29.85,29.81,10,10,8,13,7,16,0.00,4,,338
2013-6-15,91,81,71,75,70,62,90,69,48,29.99,29.95,29.89,10,10,7,15,6,,0.04,3,Thunderstorm,114
2013-6-16,91,82,75,77,73,70,94,78,53,30.07,30.01,29.96,10,7,0,14,4,16,0.22,4,Fog-Rain,158
2013-6-17,90,83,77,79,73,71,90,77,59,30.03,29.97,29.91,10,9,5,15,6,23,0.06,5,Rain-Thunderstorm,196
2013-6-18,90,80,71,74,71,67,94,78,46,30.03,29.94,29.86,10,10,1,21,7,34,0.49,6,Rain-Thunderstorm,226
2013-6-19,88,78,69,74,70,67,97,79,59,30.03,29.97,29.90,10,9,2,9,4,,0.12,4,Rain-Thunderstorm,314
2013-6-20,91,81,71,73,69,67,94,73,45,30.10,30.03,29.97,10,9,6,17,3,21,0.00,4,Rain-Thunderstorm,89
2013-6-21,90,80,71,72,70,65,96,78,53,30.13,30.07,30.02,10,8,1,16,6,33,0.67,5,Rain-Thunderstorm,75
2013-6-22,90,80,71,71,69,67,93,74,48,30.09,30.04,29.98,10,10,8,10,5,,0.00,1,,111
2013-6-23,82,77,72,75,71,68,97,83,65,30.14,30.07,30.00,10,8,0,14,5,23,1.03,5,Fog-Rain-Thunderstorm,146
2013-6-24,91,82,73,75,72,67,100,78,46,30.14,30.10,30.05,10,9,6,10,2,,0.01,5,Rain-Thunderstorm,124
2013-6-25,88,79,71,74,71,68,91,77,58,30.14,30.07,30.00,10,10,10,8,2,,0.00,5,Rain-Thunderstorm,167
2013-6-26,91,81,71,73,71,66,91,72,48,30.05,30.00,29.94,10,9,2,12,3,,0.00,4,Fog,206
2013-6-27,91,83,75,75,73,71,87,70,52,29.99,29.93,29.86,10,10,10,12,5,,0.00,5,,272
2013-6-28,95,84,75,77,73,66,88,75,50,29.88,29.81,29.73,10,10,8,15,7,28,0.00,6,Rain-Thunderstorm,240
2013-6-29,89,80,72,77,70,66,94,76,59,29.79,29.73,29.65,10,8,1,17,8,28,1.33,3,Rain-Thunderstorm,259
2013-6-30,89,79,70,73,69,66,90,74,51,29.75,29.70,29.67,10,10,8,13,3,,0.00,5,Rain-Thunderstorm,233